Airfield :
LOGIN :

Register | Disclaimer

   EN    FR    IT 

 










Legend :    VFR   Marginal VFR   IFR   Intensive IFR   Very Intensive IFR
Visi :
Ceiling :
>= 8 km
>= 3000ft
5 to 8 km
1000 to 3000 ft
1500m to 5 km
500 to 1000 ft
800 to 1500m
200 to 500 ft
< 800m
< 200 ft
Symbols :   Thunderstorms  Fog  Heavy snow  Heavy precipitations  Wind > 20 kt
SIGMETs :     Misc.  Thunderstorms  Icing  Turbulence  Mountain Waves  Volcanic Ashes






- Airport Elevation : 219 ft
- IATA code : DNR


LFRD - Dinard

CURRENT METAR :
  • 241800Z AUTO 33008KT 9999 FEW023 15/09 Q1013 NOSIG

EXPIRED METARs :
  • 241730Z AUTO 34008KT 9999 FEW025 15/09 Q1013 NOSIG
  • 241700Z AUTO 32007KT 300V360 9999 BKN024 15/09 Q1012 NOSIG
  • 241630Z AUTO 33009KT 290V360 9999 SCT024 15/09 Q1012 NOSIG
  • 241600Z AUTO 33010KT 9999 ///CB 15/09 Q1012 BECMG BKN030
  • 241530Z AUTO 34010KT 290V360 9999 FEW026/// BKN045/// ///CB 16/09 Q1012 BECMG BKN030

TAF TAF LFRD
Valid from the 24 at 18:00 until the 25 at 18:00 UTC


241700Z 2418/2518 32008KT 9999 SCT030
BECMG 2422/2424 VRB04KT
PROB40
TEMPO 2500/2505 4000 BR
BECMG 2508/2510 24010KT
PROB40
TEMPO 2516/2518 BKN009
BECMG 2516/2518 30010KT
ATIS : +33 2 99 16 81 50



MET'MAP, your aeronautical weather chart ! - Copyright ORBIFLY December 2007 - Disclaimer

ORBIFLY MET'MAP TEAM :

Programming & Development : Alexandra Zaïnal
Original concept : Baudouin d'Aumeries
Technical & hardware support : Manuel Goepfert
Assistance : Marc-Olivier Méhu

Contact : metmap@orbifly.com




SOURCES & CREDITS :

   NOAA